createdAt,value
2022-11-07T00:01:40.051Z,10.80
2022-11-07T00:04:06.774Z,10.90
2022-11-07T00:06:33.484Z,10.90
2022-11-07T00:09:00.139Z,10.90
2022-11-07T00:11:26.773Z,10.90
2022-11-07T00:13:53.961Z,11.00
2022-11-07T00:16:20.889Z,11.00
2022-11-07T00:18:47.626Z,11.00
2022-11-07T00:21:14.271Z,11.00
2022-11-07T00:23:41.417Z,11.10
2022-11-07T00:26:09.328Z,11.00
2022-11-07T00:28:37.060Z,11.00
2022-11-07T00:31:04.102Z,11.00
2022-11-07T00:33:30.769Z,11.10
2022-11-07T00:35:57.536Z,11.00
2022-11-07T00:38:24.192Z,11.20
2022-11-07T00:40:57.852Z,11.10
2022-11-07T00:43:24.597Z,11.10
2022-11-07T00:45:51.486Z,11.20
2022-11-07T00:48:18.109Z,11.10
2022-11-07T00:50:44.758Z,11.10
2022-11-07T00:53:11.637Z,11.10
2022-11-07T00:55:38.647Z,11.10
2022-11-07T00:58:08.648Z,11.10
2022-11-07T01:00:39.509Z,11.10
2022-11-07T01:03:24.933Z,11.20
2022-11-07T01:05:55.498Z,11.20
2022-11-07T01:08:22.295Z,11.20
2022-11-07T01:10:48.931Z,11.20
2022-11-07T01:13:16.085Z,11.20
2022-11-07T01:15:43.262Z,11.20
2022-11-07T01:18:10.598Z,11.30
2022-11-07T01:20:37.497Z,11.30
2022-11-07T01:23:04.351Z,11.20
2022-11-07T01:25:31.018Z,11.20
2022-11-07T01:27:57.672Z,11.20
2022-11-07T01:30:24.491Z,11.20
2022-11-07T01:32:51.115Z,11.20
2022-11-07T01:35:17.774Z,11.30
2022-11-07T01:37:44.505Z,11.30
2022-11-07T01:40:11.393Z,11.30
2022-11-07T01:42:38.077Z,11.30
2022-11-07T01:45:05.024Z,11.30
2022-11-07T01:47:36.340Z,11.30
2022-11-07T01:50:03.927Z,11.10
2022-11-07T01:52:33.326Z,11.30
2022-11-07T01:55:04.749Z,11.30
2022-11-07T01:57:36.394Z,11.30
2022-11-07T02:00:04.926Z,11.30
2022-11-07T02:02:32.887Z,11.30
2022-11-07T02:05:01.265Z,11.20
2022-11-07T02:07:28.842Z,11.20
2022-11-07T02:09:55.835Z,11.20
2022-11-07T02:12:23.848Z,11.10
2022-11-07T02:14:50.757Z,11.20
2022-11-07T02:17:18.018Z,11.30
2022-11-07T02:19:47.268Z,11.20
2022-11-07T02:22:13.982Z,11.30
2022-11-07T02:24:41.053Z,11.30
2022-11-07T02:27:11.842Z,11.30
2022-11-07T02:29:39.723Z,11.30
2022-11-07T02:32:09.346Z,11.30
2022-11-07T02:34:36.306Z,11.30
2022-11-07T02:37:05.655Z,11.30
2022-11-07T02:39:32.466Z,11.30
2022-11-07T02:42:00.353Z,11.40
2022-11-07T02:44:27.494Z,11.40
2022-11-07T02:46:54.181Z,11.40
2022-11-07T02:49:20.846Z,11.40
2022-11-07T02:51:47.530Z,11.40
2022-11-07T02:54:14.210Z,11.40
2022-11-07T02:56:41.152Z,11.40
2022-11-07T02:59:07.784Z,11.40
2022-11-07T03:01:34.549Z,11.50
2022-11-07T03:04:01.371Z,11.50
2022-11-07T03:06:28.101Z,11.50
2022-11-07T03:08:54.719Z,11.50
2022-11-07T03:11:21.421Z,11.50
2022-11-07T03:13:48.833Z,11.50
2022-11-07T03:16:16.360Z,11.50
2022-11-07T03:18:43.114Z,11.50
2022-11-07T03:21:09.775Z,11.50
2022-11-07T03:23:36.699Z,11.50
2022-11-07T03:26:03.803Z,11.40
2022-11-07T03:28:31.325Z,11.30
2022-11-07T03:31:01.766Z,11.30
2022-11-07T03:33:29.014Z,11.30
2022-11-07T03:35:55.778Z,11.30
2022-11-07T03:38:22.627Z,11.30
2022-11-07T03:40:49.475Z,11.30
2022-11-07T03:43:16.492Z,11.30
2022-11-07T03:45:43.512Z,11.30
2022-11-07T03:48:10.173Z,11.40
2022-11-07T03:50:36.929Z,11.20
2022-11-07T03:53:03.614Z,11.20
2022-11-07T03:55:30.307Z,11.20
2022-11-07T03:57:56.925Z,11.20
2022-11-07T04:00:23.794Z,11.30
2022-11-07T04:02:50.582Z,11.20
2022-11-07T04:05:17.520Z,11.20
2022-11-07T04:07:44.150Z,11.30
2022-11-07T04:10:11.070Z,11.30
2022-11-07T04:12:56.584Z,11.30
2022-11-07T04:15:41.871Z,11.30
2022-11-07T04:18:08.570Z,11.30
2022-11-07T04:20:35.245Z,11.30
2022-11-07T04:23:01.914Z,11.40
2022-11-07T04:26:00.869Z,11.40
2022-11-07T04:28:27.555Z,11.40
2022-11-07T04:30:54.173Z,11.40
2022-11-07T04:33:20.890Z,11.40
2022-11-07T04:35:47.539Z,11.40
2022-11-07T04:38:14.599Z,11.40
2022-11-07T04:40:41.461Z,11.50
2022-11-07T04:43:09.402Z,11.50
2022-11-07T04:45:37.063Z,11.50
2022-11-07T04:48:03.991Z,11.50
2022-11-07T04:50:30.842Z,11.60
2022-11-07T04:52:57.628Z,11.60
2022-11-07T04:55:25.458Z,11.60
2022-11-07T04:57:52.111Z,11.60
2022-11-07T05:00:19.552Z,11.60
2022-11-07T05:02:47.143Z,11.60
2022-11-07T05:05:14.168Z,11.60
2022-11-07T05:07:40.973Z,11.60
2022-11-07T05:10:12.176Z,11.50
2022-11-07T05:12:39.243Z,11.60
2022-11-07T05:15:06.177Z,11.60
2022-11-07T05:17:32.830Z,11.60
2022-11-07T05:19:59.648Z,11.60
2022-11-07T05:22:45.048Z,11.60
2022-11-07T05:25:11.783Z,11.60
2022-11-07T05:27:38.457Z,11.60
2022-11-07T05:30:05.686Z,11.60
2022-11-07T05:32:34.110Z,11.60
2022-11-07T05:35:00.734Z,11.60
2022-11-07T05:37:27.401Z,11.60
2022-11-07T05:39:55.251Z,11.70
2022-11-07T05:42:21.937Z,11.60
2022-11-07T05:44:48.583Z,11.70
2022-11-07T05:47:15.270Z,11.70
2022-11-07T05:49:41.908Z,11.70
2022-11-07T05:52:08.851Z,11.70
2022-11-07T05:54:35.514Z,11.70
2022-11-07T05:57:02.161Z,11.60
2022-11-07T05:59:28.899Z,11.70
2022-11-07T06:01:55.642Z,11.70
2022-11-07T06:04:22.483Z,11.70
2022-11-07T06:06:49.130Z,11.70
2022-11-07T06:09:15.839Z,11.80
2022-11-07T06:11:42.646Z,11.70
2022-11-07T06:14:09.312Z,11.70
2022-11-07T06:16:36.043Z,11.70
2022-11-07T06:19:03.188Z,11.70
2022-11-07T06:21:30.069Z,11.70
2022-11-07T06:23:57.911Z,11.70
2022-11-07T06:26:24.734Z,11.70
2022-11-07T06:28:51.383Z,11.70
2022-11-07T06:31:18.023Z,11.80
2022-11-07T06:33:44.885Z,11.80
2022-11-07T06:36:12.543Z,11.80
2022-11-07T06:38:39.777Z,11.80
2022-11-07T06:41:07.191Z,11.80
2022-11-07T06:43:34.272Z,11.80
2022-11-07T06:46:05.274Z,11.80
2022-11-07T06:48:31.937Z,11.80
2022-11-07T06:50:59.335Z,11.80
2022-11-07T06:53:26.378Z,11.80
2022-11-07T06:55:53.231Z,12.00
2022-11-07T06:58:20.400Z,11.90
2022-11-07T07:00:47.224Z,11.80
2022-11-07T07:03:14.276Z,11.90
2022-11-07T07:05:41.411Z,11.90
2022-11-07T07:08:08.577Z,11.80
2022-11-07T07:10:36.699Z,11.90
2022-11-07T07:13:03.444Z,11.90
2022-11-07T07:15:42.112Z,11.90
2022-11-07T07:18:16.367Z,11.90
2022-11-07T07:20:43.065Z,11.90
2022-11-07T07:23:09.871Z,11.90
2022-11-07T07:25:36.547Z,11.90
2022-11-07T07:28:03.142Z,11.90
2022-11-07T07:30:29.867Z,11.90
2022-11-07T07:32:56.594Z,12.00
2022-11-07T07:35:23.273Z,11.90
2022-11-07T07:37:51.080Z,12.00
2022-11-07T07:40:19.006Z,12.00
2022-11-07T07:42:45.961Z,12.00
2022-11-07T07:45:13.999Z,12.00
2022-11-07T07:47:41.128Z,12.00
2022-11-07T07:50:09.449Z,12.10
2022-11-07T07:52:36.344Z,12.10
2022-11-07T07:55:09.857Z,12.10
2022-11-07T07:57:40.698Z,12.10
2022-11-07T08:00:07.816Z,12.10
2022-11-07T08:02:35.826Z,12.10
2022-11-07T08:05:02.747Z,12.30
2022-11-07T08:07:29.778Z,12.30
2022-11-07T08:09:59.364Z,12.30
2022-11-07T08:12:28.856Z,12.30
2022-11-07T08:14:55.570Z,12.30
2022-11-07T08:17:22.277Z,12.20
2022-11-07T08:19:48.972Z,12.20
2022-11-07T08:22:15.696Z,12.20
2022-11-07T08:24:43.339Z,12.20
2022-11-07T08:27:10.075Z,12.20
2022-11-07T08:29:36.856Z,12.20
2022-11-07T08:32:03.634Z,12.30
2022-11-07T08:34:30.396Z,12.20
2022-11-07T08:37:02.674Z,12.20
2022-11-07T08:39:29.516Z,12.20
2022-11-07T08:41:56.493Z,12.30
2022-11-07T08:44:23.192Z,12.30
2022-11-07T08:46:53.084Z,12.30
2022-11-07T08:49:19.852Z,12.30
2022-11-07T08:51:46.640Z,12.30
2022-11-07T08:54:13.557Z,12.40
2022-11-07T08:56:40.950Z,12.50
2022-11-07T08:59:09.632Z,12.50
2022-11-07T09:01:56.016Z,12.60
2022-11-07T09:04:23.164Z,12.60
2022-11-07T09:06:49.837Z,12.60
2022-11-07T09:09:16.905Z,12.60
2022-11-07T09:11:46.437Z,12.70
2022-11-07T09:14:13.325Z,12.80
2022-11-07T09:16:40.022Z,12.90
2022-11-07T09:19:06.736Z,12.90
2022-11-07T09:21:33.492Z,12.90
2022-11-07T09:24:00.198Z,12.90
2022-11-07T09:26:27.115Z,12.90
2022-11-07T09:28:58.722Z,12.90
2022-11-07T09:31:27.711Z,13.00
2022-11-07T09:33:54.398Z,13.00
2022-11-07T09:36:27.802Z,13.00
2022-11-07T09:38:56.320Z,13.10
2022-11-07T09:41:49.062Z,13.20
2022-11-07T09:44:16.160Z,13.10
2022-11-07T09:47:01.468Z,13.20
2022-11-07T09:49:40.217Z,13.10
2022-11-07T09:52:19.605Z,13.20
2022-11-07T09:55:02.186Z,13.20
2022-11-07T09:57:31.313Z,13.20
2022-11-07T10:00:12.055Z,13.30
2022-11-07T10:02:56.503Z,13.40
2022-11-07T10:06:07.611Z,13.50
2022-11-07T10:09:11.807Z,13.50
2022-11-07T10:11:39.175Z,13.60
2022-11-07T10:14:13.815Z,13.60
2022-11-07T10:16:53.007Z,13.60
2022-11-07T10:19:27.512Z,13.70
2022-11-07T10:22:00.119Z,13.80
2022-11-07T10:24:30.265Z,13.90
2022-11-07T10:26:58.139Z,13.90
2022-11-07T10:29:28.711Z,14.00
2022-11-07T10:31:57.601Z,14.10
2022-11-07T10:34:37.367Z,14.10
2022-11-07T10:37:04.482Z,14.10
2022-11-07T10:39:32.082Z,14.10
2022-11-07T10:42:07.784Z,14.00
2022-11-07T10:44:35.309Z,14.20
2022-11-07T10:47:06.294Z,14.70
2022-11-07T10:49:35.372Z,15.20
2022-11-07T10:52:13.905Z,15.60
2022-11-07T10:54:48.133Z,15.80
2022-11-07T10:57:20.046Z,16.00
2022-11-07T10:59:46.738Z,16.00
2022-11-07T11:02:24.081Z,16.10
2022-11-07T11:05:02.488Z,16.10
2022-11-07T11:07:39.486Z,16.10
2022-11-07T11:10:30.910Z,16.20
2022-11-07T11:12:57.881Z,16.30
2022-11-07T11:15:29.931Z,16.40
2022-11-07T11:18:05.281Z,16.50
2022-11-07T11:20:37.520Z,16.70
2022-11-07T11:23:06.365Z,16.60
2022-11-07T11:25:42.937Z,16.70
2022-11-07T11:28:13.482Z,16.60
2022-11-07T11:30:40.738Z,16.30
2022-11-07T11:33:22.774Z,16.10
2022-11-07T11:35:52.252Z,16.00
2022-11-07T11:38:23.134Z,15.90
2022-11-07T11:41:04.560Z,15.90
2022-11-07T11:43:44.127Z,15.70
2022-11-07T11:46:19.488Z,15.60
2022-11-07T11:48:57.435Z,15.70
2022-11-07T11:51:42.907Z,15.80
2022-11-07T11:54:10.847Z,15.80
2022-11-07T11:56:38.065Z,15.90
2022-11-07T11:59:20.249Z,16.00
2022-11-07T12:01:53.339Z,16.10
2022-11-07T12:04:23.168Z,16.10
2022-11-07T12:06:52.279Z,16.10
2022-11-07T12:09:39.744Z,16.00
2022-11-07T12:12:23.118Z,16.10
2022-11-07T12:14:57.540Z,16.30
2022-11-07T12:17:33.678Z,16.10
2022-11-07T12:20:14.618Z,15.80
2022-11-07T12:22:47.697Z,15.60
2022-11-07T12:25:21.144Z,15.50
2022-11-07T12:27:53.847Z,15.30
2022-11-07T12:30:39.751Z,15.20
2022-11-07T12:33:20.124Z,15.10
2022-11-07T12:36:04.641Z,14.90
2022-11-07T12:38:50.069Z,14.80
2022-11-07T12:41:35.548Z,14.80
2022-11-07T12:44:02.320Z,14.70
2022-11-07T12:46:34.683Z,14.70
2022-11-07T12:49:21.735Z,14.70
2022-11-07T12:51:55.328Z,14.80
2022-11-07T12:54:22.312Z,14.90
2022-11-07T12:56:49.625Z,14.90
2022-11-07T12:59:22.722Z,14.80
2022-11-07T13:01:56.087Z,14.70
2022-11-07T13:04:30.587Z,14.60
2022-11-07T13:07:23.803Z,14.50
2022-11-07T13:09:57.579Z,14.30
2022-11-07T13:12:30.710Z,14.10
2022-11-07T13:14:58.106Z,13.90
2022-11-07T13:17:27.877Z,13.80
2022-11-07T13:19:58.330Z,13.80
2022-11-07T13:22:36.133Z,13.70
2022-11-07T13:25:13.388Z,13.70
2022-11-07T13:27:44.495Z,13.60
2022-11-07T13:30:17.543Z,13.60
2022-11-07T13:32:46.802Z,13.60
2022-11-07T13:35:23.200Z,13.70
2022-11-07T13:38:10.433Z,13.70
2022-11-07T13:40:40.322Z,13.70
2022-11-07T13:43:07.153Z,13.70
2022-11-07T13:45:40.259Z,13.80
2022-11-07T13:48:15.434Z,13.80
2022-11-07T13:50:44.396Z,13.80
2022-11-07T13:53:31.465Z,13.80
2022-11-07T13:56:17.211Z,13.80
2022-11-07T13:58:44.858Z,13.90
2022-11-07T14:01:12.549Z,13.90
2022-11-07T14:03:39.648Z,13.90
2022-11-07T14:06:07.045Z,13.90
2022-11-07T14:08:38.763Z,13.90
2022-11-07T14:11:13.405Z,13.90
2022-11-07T14:13:49.700Z,13.90
2022-11-07T14:16:32.970Z,13.90
2022-11-07T14:19:06.830Z,13.90
2022-11-07T14:24:33.709Z,13.90
2022-11-07T14:27:12.034Z,13.90
2022-11-07T14:29:39.070Z,13.90
2022-11-07T14:32:06.770Z,13.80
2022-11-07T14:34:36.827Z,13.80
2022-11-07T14:37:06.091Z,13.80
2022-11-07T14:39:33.368Z,13.80
2022-11-07T14:42:02.593Z,13.70
2022-11-07T14:44:56.240Z,13.80
2022-11-07T14:47:25.390Z,13.70
2022-11-07T14:49:53.183Z,13.70
2022-11-07T14:52:23.126Z,13.70
2022-11-07T14:54:51.303Z,13.70
2022-11-07T14:57:18.469Z,13.70
2022-11-07T14:59:45.470Z,13.70
2022-11-07T15:02:12.573Z,13.70
2022-11-07T15:04:41.086Z,13.70
2022-11-07T15:07:10.937Z,13.70
2022-11-07T15:09:38.185Z,13.70
2022-11-07T15:12:07.480Z,13.70
2022-11-07T15:14:35.728Z,13.70
2022-11-07T15:17:04.445Z,13.70
2022-11-07T15:19:33.348Z,13.70
2022-11-07T15:22:04.060Z,13.70
2022-11-07T15:24:34.035Z,13.70
2022-11-07T15:27:21.057Z,13.70
2022-11-07T15:29:50.905Z,13.70
2022-11-07T15:32:19.248Z,13.70
2022-11-07T15:35:07.457Z,13.70
2022-11-07T15:37:33.140Z,13.70
2022-11-07T15:40:00.108Z,13.70
2022-11-07T15:42:26.929Z,13.70
2022-11-07T15:44:53.745Z,13.70
2022-11-07T15:47:22.144Z,13.70
2022-11-07T15:49:49.220Z,13.70
2022-11-07T15:52:16.166Z,13.70
2022-11-07T15:54:43.032Z,13.60
2022-11-07T15:57:11.451Z,13.60
2022-11-07T15:59:38.715Z,13.70
2022-11-07T16:02:07.229Z,13.70
2022-11-07T16:04:37.958Z,13.70
2022-11-07T16:07:09.287Z,13.70
2022-11-07T16:09:36.194Z,13.70
2022-11-07T16:12:03.075Z,13.70
2022-11-07T16:14:43.419Z,13.70
2022-11-07T16:17:18.355Z,13.60
2022-11-07T16:19:45.573Z,13.60
2022-11-07T16:22:13.261Z,13.60
2022-11-07T16:24:40.780Z,13.60
2022-11-07T16:27:07.609Z,13.70
2022-11-07T16:29:34.475Z,13.70
2022-11-07T16:32:01.519Z,13.70
2022-11-07T16:34:28.500Z,13.70
2022-11-07T16:36:55.388Z,13.80
2022-11-07T16:39:33.889Z,13.80
2022-11-07T16:42:00.809Z,13.80
2022-11-07T16:44:27.667Z,13.80
2022-11-07T16:46:55.383Z,13.80
2022-11-07T16:49:30.797Z,13.80
2022-11-07T16:51:58.050Z,13.80
2022-11-07T16:54:25.254Z,13.80
2022-11-07T16:56:52.973Z,13.80
2022-11-07T16:59:23.861Z,13.80
2022-11-07T17:01:51.721Z,13.80
2022-11-07T17:04:18.877Z,13.80
2022-11-07T17:06:47.871Z,13.80
2022-11-07T17:09:24.674Z,13.80
2022-11-07T17:11:51.650Z,13.80
2022-11-07T17:14:18.454Z,13.80
2022-11-07T17:16:49.820Z,13.80
2022-11-07T17:19:18.130Z,13.80
2022-11-07T17:21:48.664Z,13.80
2022-11-07T17:24:18.384Z,13.80
2022-11-07T17:26:45.372Z,13.80
2022-11-07T17:29:13.610Z,13.80
2022-11-07T17:31:41.451Z,13.80
2022-11-07T17:34:09.041Z,13.90
2022-11-07T17:36:38.346Z,13.80
2022-11-07T17:39:08.363Z,13.80
2022-11-07T17:41:35.307Z,13.80
2022-11-07T17:44:03.981Z,13.80
2022-11-07T17:46:32.507Z,13.80
2022-11-07T17:49:01.145Z,13.80
2022-11-07T17:51:28.323Z,13.80
2022-11-07T17:53:56.472Z,13.80
2022-11-07T17:56:24.514Z,13.80
2022-11-07T17:58:58.979Z,13.80
2022-11-07T18:01:28.351Z,13.80
2022-11-07T18:03:55.475Z,13.80
2022-11-07T18:06:26.700Z,13.80
2022-11-07T18:08:55.922Z,13.80
2022-11-07T18:11:24.336Z,13.80
2022-11-07T18:13:51.856Z,13.80
2022-11-07T18:16:20.425Z,13.80
2022-11-07T18:18:47.308Z,13.80
2022-11-07T18:21:14.593Z,13.80
2022-11-07T18:23:41.947Z,13.80
2022-11-07T18:26:13.254Z,13.80
2022-11-07T18:28:40.489Z,13.80
2022-11-07T18:31:12.204Z,13.80
2022-11-07T18:33:39.851Z,13.80
2022-11-07T18:36:14.493Z,13.80
2022-11-07T18:38:41.655Z,13.80
2022-11-07T18:41:10.642Z,13.80
2022-11-07T18:43:38.079Z,13.80
2022-11-07T18:46:05.690Z,13.80
2022-11-07T18:48:32.673Z,13.80
2022-11-07T18:51:00.626Z,13.80
2022-11-07T18:53:30.915Z,13.80
2022-11-07T18:56:01.610Z,13.80
2022-11-07T18:58:29.001Z,13.80
2022-11-07T19:00:56.025Z,13.80
2022-11-07T19:03:23.211Z,13.80
2022-11-07T19:05:50.349Z,13.80
2022-11-07T19:08:17.806Z,13.70
2022-11-07T19:10:44.986Z,13.70
2022-11-07T19:13:11.925Z,13.70
2022-11-07T19:15:39.652Z,13.70
2022-11-07T19:18:06.773Z,13.70
2022-11-07T19:20:33.818Z,13.70
2022-11-07T19:23:00.686Z,13.70
2022-11-07T19:25:27.704Z,13.70
2022-11-07T19:27:54.581Z,13.60
2022-11-07T19:30:21.403Z,13.60
2022-11-07T19:32:48.384Z,13.60
2022-11-07T19:35:16.370Z,13.60
2022-11-07T19:37:43.797Z,13.60
2022-11-07T19:40:10.937Z,13.60
2022-11-07T19:42:40.947Z,13.60
2022-11-07T19:45:08.106Z,13.60
2022-11-07T19:47:34.901Z,13.60
2022-11-07T19:50:02.084Z,13.60
2022-11-07T19:52:28.938Z,13.70
2022-11-07T19:54:55.749Z,13.70
2022-11-07T19:57:22.872Z,13.70
2022-11-07T19:59:49.852Z,13.70
2022-11-07T20:02:32.380Z,13.70
2022-11-07T20:05:00.703Z,13.70
2022-11-07T20:07:27.612Z,13.70
2022-11-07T20:09:55.192Z,13.70
2022-11-07T20:12:22.027Z,13.70
2022-11-07T20:14:48.960Z,13.70
2022-11-07T20:17:15.857Z,13.70
2022-11-07T20:19:42.917Z,13.70
2022-11-07T20:22:12.341Z,13.70
2022-11-07T20:24:39.410Z,13.70
2022-11-07T20:27:06.557Z,13.80
2022-11-07T20:29:34.433Z,13.80
2022-11-07T20:32:01.651Z,13.80
2022-11-07T20:34:28.744Z,13.70
2022-11-07T20:36:55.487Z,13.70
2022-11-07T20:39:22.315Z,13.70
2022-11-07T20:41:49.125Z,13.70
2022-11-07T20:44:16.454Z,13.80
2022-11-07T20:46:45.950Z,13.80
2022-11-07T20:49:14.652Z,13.80
2022-11-07T20:51:41.758Z,13.80
2022-11-07T20:54:11.517Z,13.80
2022-11-07T20:56:40.677Z,13.70
2022-11-07T20:59:08.507Z,13.70
2022-11-07T21:01:37.196Z,13.70
2022-11-07T21:04:13.382Z,13.60
2022-11-07T21:06:40.292Z,13.70
2022-11-07T21:09:07.795Z,13.70
2022-11-07T21:11:34.902Z,13.60
2022-11-07T21:14:01.892Z,13.70
2022-11-07T21:16:28.819Z,13.70
2022-11-07T21:18:55.983Z,13.70
2022-11-07T21:21:25.039Z,13.80
2022-11-07T21:23:52.379Z,13.80
2022-11-07T21:26:21.285Z,13.80
2022-11-07T21:28:48.560Z,13.80
2022-11-07T21:31:18.458Z,13.80
2022-11-07T21:33:47.850Z,13.90
2022-11-07T21:36:19.141Z,13.90
2022-11-07T21:38:47.004Z,13.90
2022-11-07T21:41:14.838Z,13.90
2022-11-07T21:43:42.109Z,13.90
2022-11-07T21:46:13.943Z,13.90
2022-11-07T21:48:41.193Z,14.00
2022-11-07T21:51:08.971Z,14.00
2022-11-07T21:53:38.013Z,14.00
2022-11-07T21:56:06.055Z,14.00
2022-11-07T21:58:48.570Z,14.00
2022-11-07T22:01:16.568Z,14.00
2022-11-07T22:04:05.410Z,14.00
2022-11-07T22:06:35.153Z,14.00
2022-11-07T22:09:02.502Z,14.00
2022-11-07T22:11:29.406Z,14.00
2022-11-07T22:13:56.911Z,14.10
2022-11-07T22:16:23.943Z,14.10
2022-11-07T22:18:51.207Z,14.00
2022-11-07T22:21:19.575Z,14.10
2022-11-07T22:23:46.478Z,14.00
2022-11-07T22:26:14.905Z,14.00
2022-11-07T22:28:45.828Z,14.00
2022-11-07T22:31:14.616Z,14.10
2022-11-07T22:33:47.846Z,14.10
2022-11-07T22:36:14.998Z,14.10
2022-11-07T22:38:42.209Z,14.10
2022-11-07T22:41:11.621Z,14.10
2022-11-07T22:43:38.537Z,14.10
2022-11-07T22:46:06.794Z,14.10
2022-11-07T22:48:33.562Z,14.10
2022-11-07T22:51:03.562Z,14.20
2022-11-07T22:53:30.373Z,14.10
2022-11-07T22:55:57.283Z,14.10
2022-11-07T22:58:24.264Z,14.10
2022-11-07T23:00:51.086Z,14.10
2022-11-07T23:03:18.455Z,14.10
2022-11-07T23:05:45.339Z,14.20
2022-11-07T23:08:12.151Z,14.20
2022-11-07T23:10:38.879Z,14.20
2022-11-07T23:13:05.679Z,14.20
2022-11-07T23:15:32.525Z,14.20
2022-11-07T23:17:59.341Z,14.20
2022-11-07T23:20:44.885Z,14.10
2022-11-07T23:23:11.640Z,14.10
2022-11-07T23:25:38.400Z,14.00
2022-11-07T23:28:07.527Z,14.00
2022-11-07T23:30:37.341Z,13.90
2022-11-07T23:33:04.193Z,13.80
2022-11-07T23:35:32.071Z,13.80
2022-11-07T23:37:59.005Z,13.80
2022-11-07T23:51:03.835Z,13.70
2022-11-07T23:53:53.100Z,13.60
2022-11-07T23:56:20.430Z,13.60
2022-11-07T23:59:06.507Z,13.60
